Gregory, Arkansas
Current Conditions -  °F | °C
As of 5:56 PM on Wednesday 26 Nov 2014 (Local Time) from KSRC Reporting Station
Clear Clear  
Wind Chill:   Ceiling: Unl
Heat Index:   Visibility: 10mi
Dew Point: -2°   Wind: 5mph
Humidity: 46%   Direction: 310°NW
Pressure: 30.13"   Gusts: NA
Location:  35.16°N, 91.34°W
Report Text: KSRC 262356Z AUTO 31004KT 10SM CLR 09/M02 A3013 RMK AO2 SLP211 T00891022 10133 20067 53031 TSNO
Loading
Personal Weather Stations






























Interactive Weather Map New forecast layout! Learn more

10-Day Weather Forecast

Advertisements
Track Severe Weather on mobile